Time;durP1;ratioP1;P1;durP2;ratioP2;P2;SDS_P1;SDS_P2;PMS_P1;PMS_P2;Temp;Humidity;BMP_temperature;BMP_pressure;BME280_temperature;BME280_humidity;BME280_pressure;Samples;Min_cycle;Max_cycle;Signal;HPM_P1;HPM_P2
2021/06/20 09:22:42;;;;;;;1.80;1.00;;;;;;;;;;5081398;28;20704;-63
2021/06/20 09:25:09;;;;;;;1.08;0.98;;;;;;;;;;5068307;28;20041;-64
2021/06/20 09:27:35;;;;;;;1.58;1.20;;;;;;;;;;5054966;28;20116;-64
2021/06/20 09:30:11;;;;;;;2.83;1.10;;;;;;;;;;5047044;28;20056;-64
2021/06/20 09:32:40;;;;;;;1.08;0.80;;;;;;;;;;5046781;28;20053;-66
2021/06/20 09:35:06;;;;;;;2.38;1.02;;;;;;;;;;5047286;28;20034;-63
2021/06/20 09:37:32;;;;;;;1.23;0.82;;;;;;;;;;5047896;28;20117;-66
2021/06/20 09:39:57;;;;;;;1.10;1.00;;;;;;;;;;5046652;28;20611;-66
2021/06/20 09:42:23;;;;;;;1.10;0.80;;;;;;;;;;5031198;28;20045;-61
2021/06/20 09:44:52;;;;;;;1.33;1.00;;;;;;;;;;5048236;28;20573;-66
2021/06/20 09:47:22;;;;;;;1.50;1.10;;;;;;;;;;5047749;28;20029;-67
2021/06/20 09:49:49;;;;;;;0.90;0.80;;;;;;;;;;5050397;28;20037;-65
2021/06/20 09:52:25;;;;;;;1.42;0.88;;;;;;;;;;5055360;28;20533;-64
2021/06/20 09:54:55;;;;;;;1.50;1.00;;;;;;;;;;5033022;28;20529;-65
2021/06/20 09:57:21;;;;;;;1.23;0.85;;;;;;;;;;5045826;28;20041;-66
2021/06/20 09:59:57;;;;;;;1.20;0.90;;;;;;;;;;5061595;28;20083;-65
2021/06/20 10:02:30;;;;;;;1.13;0.80;;;;;;;;;;5061226;28;20069;-65
2021/06/20 10:04:55;;;;;;;0.85;0.70;;;;;;;;;;5048826;28;20043;-65
2021/06/20 10:07:25;;;;;;;0.80;0.70;;;;;;;;;;5043170;28;20098;-65
2021/06/20 10:09:51;;;;;;;1.15;0.95;;;;;;;;;;5045831;28;20040;-66
2021/06/20 10:12:17;;;;;;;1.17;1.00;;;;;;;;;;5047191;28;20136;-65
2021/06/20 10:14:42;;;;;;;2.08;0.80;;;;;;;;;;5048288;28;20034;-65
2021/06/20 10:17:10;;;;;;;0.88;0.85;;;;;;;;;;5029273;28;20037;-65
2021/06/20 10:19:40;;;;;;;0.95;0.75;;;;;;;;;;5047135;28;20030;-65
2021/06/20 10:22:08;;;;;;;0.98;0.68;;;;;;;;;;5045500;28;20136;-66
2021/06/20 10:24:48;;;;;;;0.98;0.80;;;;;;;;;;5045996;28;20044;-64
2021/06/20 10:27:34;;;;;;;1.23;0.80;;;;;;;;;;5045632;28;20310;-63
2021/06/20 10:30:04;;;;;;;1.20;0.80;;;;;;;;;;5043273;28;20045;-63
2021/06/20 10:32:37;;;;;;;0.80;0.73;;;;;;;;;;5038182;28;20042;-63
2021/06/20 10:35:04;;;;;;;1.05;0.80;;;;;;;;;;5029824;28;20026;-63
2021/06/20 10:37:34;;;;;;;0.80;0.80;;;;;;;;;;5032674;28;20080;-63
2021/06/20 10:40:03;;;;;;;1.02;0.80;;;;;;;;;;5030627;28;20121;-63
2021/06/20 10:42:35;;;;;;;1.27;0.80;;;;;;;;;;5031855;28;20041;-63
2021/06/20 10:45:00;;;;;;;1.13;0.80;;;;;;;;;;5032544;28;20088;-63
2021/06/20 10:47:44;;;;;;;1.48;0.73;;;;;;;;;;5031784;28;20034;-63
2021/06/20 10:50:14;;;;;;;0.98;0.70;;;;;;;;;;5033135;28;20040;-63
2021/06/20 10:52:40;;;;;;;2.17;0.70;;;;;;;;;;5040377;28;20609;-63
2021/06/20 10:55:08;;;;;;;1.10;0.80;;;;;;;;;;5032127;28;20516;-64
2021/06/20 10:57:44;;;;;;;0.82;0.80;;;;;;;;;;5032335;28;20030;-63
2021/06/20 11:00:10;;;;;;;1.45;0.82;;;;;;;;;;5030467;28;20041;-64
2021/06/20 11:02:35;;;;;;;1.27;0.90;;;;;;;;;;5030618;28;20528;-66
2021/06/20 11:05:01;;;;;;;1.63;0.70;;;;;;;;;;5031811;28;20038;-67
2021/06/20 11:07:28;;;;;;;1.02;0.70;;;;;;;;;;5023031;28;21129;-70
2021/06/20 11:09:57;;;;;;;0.65;0.60;;;;;;;;;;5030769;28;20061;-70
2021/06/20 11:12:22;;;;;;;1.13;0.68;;;;;;;;;;5008348;28;20136;-70
2021/06/20 11:14:49;;;;;;;1.27;0.80;;;;;;;;;;5033101;28;20045;-70
2021/06/20 11:17:15;;;;;;;0.80;0.80;;;;;;;;;;5029339;28;20502;-70
2021/06/20 11:19:40;;;;;;;1.67;0.80;;;;;;;;;;5032788;28;20034;-70
2021/06/20 11:22:07;;;;;;;2.35;0.88;;;;;;;;;;5032041;28;20049;-70
2021/06/20 11:24:39;;;;;;;1.10;0.82;;;;;;;;;;5046934;28;20028;-70
2021/06/20 11:27:15;;;;;;;0.95;0.75;;;;;;;;;;5029391;28;20506;-70
2021/06/20 11:29:41;;;;;;;0.60;0.60;;;;;;;;;;5030740;28;20025;-71
2021/06/20 11:32:22;;;;;;;1.33;0.73;;;;;;;;;;5032310;28;20124;-64
2021/06/20 11:34:52;;;;;;;1.38;0.70;;;;;;;;;;5015457;28;21322;-68
2021/06/20 11:45:49;;;;;;;1.05;0.80;;;;;;;;;;5119247;27;20392;-65
2021/06/20 11:48:14;;;;;;;1.73;0.82;;;;;;;;;;5087367;28;20486;-65
2021/06/20 11:50:41;;;;;;;1.27;0.82;;;;;;;;;;5087799;28;20090;-66
2021/06/20 11:53:08;;;;;;;1.23;0.90;;;;;;;;;;5086187;28;20098;-66
2021/06/20 11:55:43;;;;;;;1.58;0.77;;;;;;;;;;5077086;28;20128;-66
2021/06/20 11:58:10;;;;;;;2.35;0.68;;;;;;;;;;5057660;28;20491;-65
2021/06/20 12:00:37;;;;;;;1.00;0.82;;;;;;;;;;5086948;28;20044;-66
2021/06/20 12:03:09;;;;;;;0.68;0.68;;;;;;;;;;5067578;28;20114;-66
2021/06/20 12:05:36;;;;;;;0.70;0.70;;;;;;;;;;5086938;28;20040;-66
2021/06/20 12:08:02;;;;;;;0.75;0.70;;;;;;;;;;5084354;28;20036;-65
2021/06/20 12:10:29;;;;;;;1.52;0.77;;;;;;;;;;5086255;28;20075;-65
2021/06/20 12:13:03;;;;;;;1.33;0.70;;;;;;;;;;5086440;28;20033;-65
2021/06/20 12:15:29;;;;;;;1.77;0.82;;;;;;;;;;5089798;28;20041;-66
2021/06/20 12:17:54;;;;;;;1.50;0.80;;;;;;;;;;5084921;28;20036;-66
2021/06/20 12:20:35;;;;;;;1.15;0.73;;;;;;;;;;5085679;28;20033;-65
2021/06/20 12:23:01;;;;;;;1.30;0.70;;;;;;;;;;5083672;28;20112;-65
2021/06/20 12:25:26;;;;;;;0.85;0.70;;;;;;;;;;5082536;28;20049;-66
2021/06/20 12:27:52;;;;;;;0.68;0.68;;;;;;;;;;5082517;28;20032;-65
2021/06/20 12:30:19;;;;;;;1.00;0.80;;;;;;;;;;5071804;28;20041;-66
2021/06/20 12:32:45;;;;;;;1.05;0.80;;;;;;;;;;5065865;28;20108;-66
2021/06/20 12:35:23;;;;;;;0.60;0.60;;;;;;;;;;5084754;28;20609;-66
2021/06/20 12:37:49;;;;;;;0.93;0.70;;;;;;;;;;5085839;27;20032;-65
2021/06/20 12:40:17;;;;;;;0.70;0.70;;;;;;;;;;5083396;28;20060;-65
2021/06/20 12:42:54;;;;;;;1.05;0.70;;;;;;;;;;5087074;27;20037;-65
2021/06/20 12:45:23;;;;;;;0.88;0.80;;;;;;;;;;5086183;28;20060;-65
2021/06/20 12:47:49;;;;;;;0.75;0.68;;;;;;;;;;5085282;28;20032;-65
2021/06/20 12:50:22;;;;;;;1.05;0.88;;;;;;;;;;5083607;28;20559;-65
2021/06/20 12:52:49;;;;;;;0.80;0.70;;;;;;;;;;5084861;28;21088;-65
2021/06/20 12:55:16;;;;;;;0.95;0.80;;;;;;;;;;5067746;28;20044;-65
2021/06/20 12:57:49;;;;;;;0.80;0.70;;;;;;;;;;5074275;28;20041;-65
2021/06/20 13:00:15;;;;;;;1.33;0.80;;;;;;;;;;5055461;28;20036;-65
2021/06/20 13:02:40;;;;;;;0.60;0.60;;;;;;;;;;5071335;28;20405;-65
2021/06/20 13:05:06;;;;;;;0.55;0.55;;;;;;;;;;5073748;28;20055;-65
2021/06/20 13:07:39;;;;;;;2.13;0.70;;;;;;;;;;5071811;28;20481;-65
2021/06/20 13:10:10;;;;;;;1.25;1.00;;;;;;;;;;5054594;28;21093;-65
2021/06/20 13:12:36;;;;;;;1.00;0.80;;;;;;;;;;5070644;28;20041;-65
2021/06/20 13:15:02;;;;;;;0.85;0.85;;;;;;;;;;5071588;28;20420;-65
2021/06/20 13:17:28;;;;;;;0.80;0.77;;;;;;;;;;5053969;28;20036;-65
2021/06/20 13:19:53;;;;;;;0.70;0.70;;;;;;;;;;5057701;28;20024;-65
2021/06/20 13:22:19;;;;;;;0.98;0.88;;;;;;;;;;5071193;28;20701;-65
2021/06/20 13:24:44;;;;;;;1.23;0.90;;;;;;;;;;5072311;28;20036;-65
2021/06/20 13:27:09;;;;;;;1.20;0.82;;;;;;;;;;5072076;28;20070;-65
2021/06/20 13:29:35;;;;;;;0.80;0.80;;;;;;;;;;5072032;28;20037;-65
2021/06/20 13:32:00;;;;;;;1.20;0.90;;;;;;;;;;5070695;28;20048;-65
2021/06/20 13:34:26;;;;;;;0.85;0.70;;;;;;;;;;5072424;28;20120;-65
2021/06/20 13:36:52;;;;;;;0.60;0.60;;;;;;;;;;5071752;28;20033;-65
2021/06/20 13:39:17;;;;;;;0.80;0.80;;;;;;;;;;5074156;28;20679;-65
2021/06/20 13:41:43;;;;;;;0.90;0.80;;;;;;;;;;5072225;28;20040;-65
2021/06/20 13:44:08;;;;;;;1.75;0.70;;;;;;;;;;5071144;28;20041;-65
2021/06/20 13:46:34;;;;;;;1.00;0.70;;;;;;;;;;5070404;28;20489;-65
2021/06/20 13:48:59;;;;;;;0.70;0.70;;;;;;;;;;5072023;28;20037;-65
2021/06/20 13:51:25;;;;;;;0.75;0.73;;;;;;;;;;5068282;28;20040;-65
2021/06/20 13:53:52;;;;;;;0.70;0.68;;;;;;;;;;5072269;28;20056;-65
2021/06/20 13:56:18;;;;;;;1.95;1.25;;;;;;;;;;5071676;28;20021;-65
2021/06/20 13:58:43;;;;;;;1.10;0.88;;;;;;;;;;5069443;28;20032;-65
2021/06/20 14:01:09;;;;;;;0.95;0.80;;;;;;;;;;5071391;28;20041;-65
2021/06/20 14:03:34;;;;;;;1.08;0.80;;;;;;;;;;5070523;28;20085;-65
2021/06/20 14:05:59;;;;;;;1.38;0.90;;;;;;;;;;5070659;28;20035;-65
2021/06/20 14:08:25;;;;;;;1.10;0.90;;;;;;;;;;5070166;28;20843;-65
2021/06/20 14:10:50;;;;;;;1.08;0.65;;;;;;;;;;5072442;28;20120;-65
2021/06/20 14:13:16;;;;;;;1.27;0.90;;;;;;;;;;5069849;28;20697;-65
2021/06/20 14:15:41;;;;;;;1.45;0.75;;;;;;;;;;5072346;28;20037;-65
2021/06/20 14:18:08;;;;;;;0.80;0.75;;;;;;;;;;5073691;28;20037;-65
2021/06/20 14:20:35;;;;;;;1.40;0.90;;;;;;;;;;5070170;28;20858;-65
2021/06/20 14:23:00;;;;;;;0.77;0.77;;;;;;;;;;5073367;28;20031;-65
2021/06/20 14:25:26;;;;;;;1.75;0.80;;;;;;;;;;5070882;28;20051;-65
2021/06/20 14:27:51;;;;;;;1.75;0.85;;;;;;;;;;5070529;28;20037;-65
2021/06/20 14:30:17;;;;;;;1.30;0.90;;;;;;;;;;5073981;28;20044;-65
2021/06/20 14:32:43;;;;;;;1.40;0.80;;;;;;;;;;5070086;28;20067;-65
2021/06/20 14:35:09;;;;;;;1.08;0.80;;;;;;;;;;5071479;28;20045;-65
2021/06/20 14:37:35;;;;;;;0.80;0.80;;;;;;;;;;5071693;28;20104;-65
2021/06/20 14:40:00;;;;;;;0.70;0.70;;;;;;;;;;5071751;28;20727;-65
2021/06/20 14:42:26;;;;;;;0.63;0.63;;;;;;;;;;5067964;28;20044;-65
2021/06/20 14:44:51;;;;;;;0.63;0.63;;;;;;;;;;5071427;28;20582;-65
2021/06/20 14:47:17;;;;;;;0.98;0.70;;;;;;;;;;5067703;28;20549;-65
2021/06/20 14:49:42;;;;;;;0.77;0.70;;;;;;;;;;5070787;28;20444;-65
2021/06/20 14:52:08;;;;;;;1.27;0.70;;;;;;;;;;5070610;28;21120;-65
2021/06/20 14:54:33;;;;;;;0.73;0.73;;;;;;;;;;5069732;28;20033;-65
2021/06/20 14:56:59;;;;;;;2.35;0.75;;;;;;;;;;5071023;28;20043;-65
2021/06/20 14:59:27;;;;;;;0.75;0.75;;;;;;;;;;5072052;28;20040;-65
2021/06/20 15:01:52;;;;;;;0.70;0.70;;;;;;;;;;5086555;28;20080;-65
2021/06/20 15:04:18;;;;;;;1.10;0.77;;;;;;;;;;5070806;28;20037;-65
2021/06/20 15:06:45;;;;;;;0.70;0.70;;;;;;;;;;5069138;28;20670;-65
2021/06/20 15:09:11;;;;;;;0.85;0.73;;;;;;;;;;5071411;28;20048;-65
2021/06/20 15:11:37;;;;;;;0.70;0.70;;;;;;;;;;5071634;28;20048;-65
2021/06/20 15:14:02;;;;;;;0.70;0.70;;;;;;;;;;5072019;28;20041;-65
2021/06/20 15:16:28;;;;;;;0.70;0.70;;;;;;;;;;5069582;28;20033;-66
2021/06/20 15:18:53;;;;;;;0.85;0.73;;;;;;;;;;5068901;28;21029;-65
2021/06/20 15:21:19;;;;;;;0.80;0.80;;;;;;;;;;5072105;28;20029;-65
2021/06/20 15:23:44;;;;;;;0.65;0.60;;;;;;;;;;5055277;28;20602;-65
2021/06/20 15:26:10;;;;;;;0.70;0.70;;;;;;;;;;5069064;28;20048;-65
2021/06/20 15:28:54;;;;;;;0.80;0.75;;;;;;;;;;5070340;28;20573;-65
2021/06/20 15:31:20;;;;;;;0.70;0.70;;;;;;;;;;5069699;28;20076;-65
2021/06/20 15:33:46;;;;;;;1.05;0.80;;;;;;;;;;5070383;28;20059;-65
2021/06/20 15:36:11;;;;;;;1.00;0.80;;;;;;;;;;5071880;28;20107;-65
2021/06/20 15:38:37;;;;;;;0.82;0.80;;;;;;;;;;5054467;28;20036;-65
2021/06/20 15:41:02;;;;;;;0.70;0.70;;;;;;;;;;5068915;28;20041;-64
2021/06/20 15:43:28;;;;;;;0.73;0.73;;;;;;;;;;5070348;28;20107;-63
2021/06/20 15:45:53;;;;;;;1.15;0.85;;;;;;;;;;5069848;28;20049;-63
2021/06/20 15:48:19;;;;;;;1.65;0.70;;;;;;;;;;5069254;28;20033;-63
2021/06/20 15:50:44;;;;;;;1.73;0.80;;;;;;;;;;5069460;28;20025;-62
2021/06/20 15:53:10;;;;;;;0.80;0.80;;;;;;;;;;5067169;28;20044;-64
2021/06/20 15:55:36;;;;;;;0.60;0.60;;;;;;;;;;5072466;28;20901;-63
2021/06/20 15:58:02;;;;;;;0.70;0.70;;;;;;;;;;5071101;28;20028;-64
2021/06/20 16:00:28;;;;;;;0.80;0.80;;;;;;;;;;5069703;28;20037;-64
2021/06/20 16:02:54;;;;;;;1.38;1.02;;;;;;;;;;5068824;28;20048;-64
2021/06/20 16:05:20;;;;;;;1.13;0.75;;;;;;;;;;5054578;28;20541;-64
2021/06/20 16:07:45;;;;;;;1.02;0.63;;;;;;;;;;5069759;28;20048;-64
2021/06/20 16:10:12;;;;;;;0.88;0.70;;;;;;;;;;5067243;28;20044;-64
2021/06/20 16:12:37;;;;;;;0.70;0.70;;;;;;;;;;5069072;28;20052;-63
2021/06/20 16:15:04;;;;;;;0.80;0.80;;;;;;;;;;5071933;28;20041;-65
2021/06/20 16:17:30;;;;;;;0.77;0.77;;;;;;;;;;5071787;28;20037;-64
2021/06/20 16:19:56;;;;;;;1.73;0.80;;;;;;;;;;5068652;28;20103;-64
2021/06/20 16:22:21;;;;;;;0.90;0.77;;;;;;;;;;5070467;28;20120;-65
2021/06/20 16:24:47;;;;;;;1.80;0.98;;;;;;;;;;5070897;28;20045;-63
2021/06/20 16:27:12;;;;;;;0.80;0.80;;;;;;;;;;5069461;28;20143;-64
2021/06/20 16:29:38;;;;;;;1.10;0.93;;;;;;;;;;5069539;28;20455;-64
2021/06/20 16:32:05;;;;;;;1.25;0.80;;;;;;;;;;5073664;28;20032;-63
2021/06/20 16:34:31;;;;;;;0.82;0.80;;;;;;;;;;5089271;28;20478;-64
2021/06/20 16:36:56;;;;;;;1.00;0.60;;;;;;;;;;5073576;28;20040;-65
2021/06/20 16:39:22;;;;;;;0.80;0.80;;;;;;;;;;5073470;28;20033;-66
2021/06/20 16:41:47;;;;;;;2.35;1.20;;;;;;;;;;5073512;28;20029;-66
2021/06/20 16:44:13;;;;;;;1.15;0.80;;;;;;;;;;5056659;28;20037;-66
2021/06/20 16:46:38;;;;;;;1.35;0.85;;;;;;;;;;5073525;28;20044;-65
2021/06/20 16:49:04;;;;;;;1.27;0.90;;;;;;;;;;5073569;28;20028;-64
2021/06/20 16:51:29;;;;;;;0.93;0.80;;;;;;;;;;5073012;28;20493;-64
2021/06/20 16:53:55;;;;;;;0.85;0.65;;;;;;;;;;5058982;28;20048;-64
2021/06/20 16:56:20;;;;;;;1.08;0.82;;;;;;;;;;5072984;28;20472;-65
2021/06/20 16:58:45;;;;;;;0.80;0.73;;;;;;;;;;5073830;28;20028;-65
2021/06/20 17:01:11;;;;;;;0.82;0.80;;;;;;;;;;5071613;28;20459;-65
2021/06/20 17:03:36;;;;;;;1.33;0.77;;;;;;;;;;5073058;28;20114;-64
2021/06/20 17:06:02;;;;;;;0.70;0.70;;;;;;;;;;5072680;28;20044;-66
2021/06/20 17:08:27;;;;;;;2.42;0.70;;;;;;;;;;5073209;28;20079;-67
2021/06/20 17:10:53;;;;;;;0.90;0.65;;;;;;;;;;5073878;28;20043;-65
2021/06/20 17:13:18;;;;;;;1.08;0.82;;;;;;;;;;5073490;28;20036;-65
2021/06/20 17:15:44;;;;;;;0.82;0.70;;;;;;;;;;5071874;28;20037;-65
2021/06/20 17:18:09;;;;;;;1.42;0.80;;;;;;;;;;5073034;28;21032;-65
2021/06/20 17:20:35;;;;;;;0.90;0.77;;;;;;;;;;5070371;28;20160;-65
2021/06/20 17:23:00;;;;;;;1.52;0.60;;;;;;;;;;5071943;28;20117;-64
2021/06/20 17:25:26;;;;;;;0.90;0.77;;;;;;;;;;5071109;28;20048;-66
2021/06/20 17:27:54;;;;;;;0.85;0.82;;;;;;;;;;5071854;28;20041;-67
2021/06/20 17:30:19;;;;;;;0.93;0.70;;;;;;;;;;5073395;28;20084;-65
2021/06/20 17:32:45;;;;;;;1.20;0.80;;;;;;;;;;5080755;28;20435;-65
2021/06/20 17:35:11;;;;;;;0.60;0.60;;;;;;;;;;5069486;28;20057;-66
2021/06/20 17:37:36;;;;;;;1.73;0.98;;;;;;;;;;5056119;28;20028;-66
2021/06/20 17:40:06;;;;;;;2.15;0.70;;;;;;;;;;5070186;28;20040;-66
2021/06/20 17:42:34;;;;;;;1.17;0.85;;;;;;;;;;5070217;28;20127;-65
2021/06/20 17:45:00;;;;;;;0.85;0.80;;;;;;;;;;5071720;28;20113;-65
2021/06/20 17:47:25;;;;;;;0.90;0.82;;;;;;;;;;5068724;28;20727;-66
2021/06/20 17:49:51;;;;;;;0.77;0.70;;;;;;;;;;5058409;28;20037;-65
2021/06/20 17:52:16;;;;;;;1.02;0.75;;;;;;;;;;5073373;28;20035;-64
2021/06/20 17:54:42;;;;;;;1.58;0.80;;;;;;;;;;5070750;28;20538;-65
2021/06/20 17:57:08;;;;;;;0.70;0.70;;;;;;;;;;5071191;28;20041;-67
2021/06/20 17:59:33;;;;;;;0.70;0.70;;;;;;;;;;5079620;28;20130;-67
2021/06/20 18:01:58;;;;;;;3.47;0.88;;;;;;;;;;5072380;28;20396;-64
2021/06/20 18:04:24;;;;;;;0.82;0.80;;;;;;;;;;5072752;28;21010;-64
2021/06/20 18:06:50;;;;;;;0.80;0.80;;;;;;;;;;5071346;28;21070;-65
2021/06/20 18:09:15;;;;;;;0.77;0.77;;;;;;;;;;5070893;28;20033;-65
2021/06/20 18:11:41;;;;;;;1.27;1.00;;;;;;;;;;5072041;28;20568;-64
2021/06/20 18:14:07;;;;;;;0.85;0.77;;;;;;;;;;5071867;28;20029;-64
2021/06/20 18:16:34;;;;;;;0.70;0.70;;;;;;;;;;5071608;28;20563;-64
2021/06/20 18:18:59;;;;;;;0.80;0.80;;;;;;;;;;5055611;28;20230;-65
2021/06/20 18:21:25;;;;;;;1.10;0.70;;;;;;;;;;5070096;28;20496;-65
2021/06/20 18:23:51;;;;;;;1.98;0.80;;;;;;;;;;5069111;28;20033;-65
2021/06/20 18:26:16;;;;;;;2.92;0.98;;;;;;;;;;5073325;28;20041;-65
2021/06/20 18:28:42;;;;;;;1.08;0.80;;;;;;;;;;5070404;28;20098;-65
2021/06/20 18:31:08;;;;;;;0.93;0.80;;;;;;;;;;5062754;28;20041;-65
2021/06/20 18:33:33;;;;;;;1.15;0.85;;;;;;;;;;5071186;28;20093;-65
2021/06/20 18:36:00;;;;;;;0.70;0.70;;;;;;;;;;5069712;28;20083;-65
2021/06/20 18:38:26;;;;;;;1.13;0.80;;;;;;;;;;5069564;28;20036;-65
2021/06/20 18:40:51;;;;;;;1.35;0.88;;;;;;;;;;5067920;28;20041;-66
2021/06/20 18:43:17;;;;;;;0.73;0.73;;;;;;;;;;5069494;28;20029;-65
2021/06/20 18:45:43;;;;;;;0.80;0.80;;;;;;;;;;5069275;28;20052;-65
2021/06/20 18:48:08;;;;;;;0.73;0.70;;;;;;;;;;5071111;28;20701;-64
2021/06/20 18:50:34;;;;;;;1.23;1.00;;;;;;;;;;5069141;28;20041;-64
2021/06/20 18:52:59;;;;;;;1.17;0.90;;;;;;;;;;5055377;28;20025;-65
2021/06/20 18:55:25;;;;;;;0.90;0.90;;;;;;;;;;5084658;28;20512;-65
2021/06/20 18:57:51;;;;;;;0.95;0.80;;;;;;;;;;5085745;28;20036;-65
2021/06/20 19:00:18;;;;;;;1.10;1.00;;;;;;;;;;5070643;28;20035;-65
2021/06/20 19:02:44;;;;;;;1.10;1.00;;;;;;;;;;5067877;28;20028;-65
2021/06/20 19:05:10;;;;;;;1.10;0.90;;;;;;;;;;5070709;28;20055;-65
2021/06/20 19:07:35;;;;;;;0.75;0.70;;;;;;;;;;5072734;28;20069;-65
2021/06/20 19:10:01;;;;;;;1.00;0.93;;;;;;;;;;5069960;28;20123;-65
2021/06/20 19:12:28;;;;;;;1.30;0.95;;;;;;;;;;5068610;28;20035;-65
2021/06/20 19:14:59;;;;;;;0.93;0.90;;;;;;;;;;5070428;28;20025;-65
2021/06/20 19:17:26;;;;;;;1.40;1.00;;;;;;;;;;5070181;28;20949;-65
2021/06/20 19:19:51;;;;;;;1.20;0.90;;;;;;;;;;5070412;28;20032;-65
2021/06/20 19:22:18;;;;;;;1.13;1.02;;;;;;;;;;5070762;28;20583;-65
2021/06/20 19:24:43;;;;;;;1.25;1.15;;;;;;;;;;5069048;28;20098;-65
2021/06/20 19:27:09;;;;;;;1.23;1.10;;;;;;;;;;5070796;28;20501;-65
2021/06/20 19:29:34;;;;;;;1.60;1.02;;;;;;;;;;5069827;28;20041;-65
2021/06/20 19:32:00;;;;;;;1.20;1.00;;;;;;;;;;5068668;28;20139;-65
2021/06/20 19:34:25;;;;;;;1.35;1.10;;;;;;;;;;5068930;28;20028;-65
2021/06/20 19:36:51;;;;;;;1.38;1.00;;;;;;;;;;5069642;28;20349;-64
2021/06/20 19:39:16;;;;;;;1.60;1.30;;;;;;;;;;5069406;28;20037;-65
2021/06/20 19:41:42;;;;;;;2.40;1.40;;;;;;;;;;5068408;28;20045;-65
2021/06/20 19:44:07;;;;;;;1.80;1.38;;;;;;;;;;5066549;28;20052;-65
2021/06/20 19:46:33;;;;;;;2.15;1.50;;;;;;;;;;5071142;28;20040;-65
2021/06/20 19:48:59;;;;;;;2.08;1.42;;;;;;;;;;5067094;28;20576;-65
2021/06/20 19:51:25;;;;;;;1.55;1.20;;;;;;;;;;5085929;28;20044;-65
2021/06/20 19:53:50;;;;;;;1.77;1.23;;;;;;;;;;5070438;28;20095;-65
2021/06/20 19:56:16;;;;;;;1.15;0.95;;;;;;;;;;5069146;28;20064;-65
2021/06/20 19:58:42;;;;;;;2.42;1.15;;;;;;;;;;5069335;28;20037;-66
2021/06/20 20:01:07;;;;;;;0.80;0.80;;;;;;;;;;5069311;28;20049;-64
2021/06/20 20:03:33;;;;;;;1.80;0.82;;;;;;;;;;5072245;28;20477;-65
2021/06/20 20:05:59;;;;;;;1.33;0.88;;;;;;;;;;5067771;28;20505;-65
2021/06/20 20:08:24;;;;;;;1.35;1.02;;;;;;;;;;5072981;28;20032;-66
2021/06/20 20:10:52;;;;;;;1.02;0.80;;;;;;;;;;5072045;28;20040;-65
2021/06/20 20:13:18;;;;;;;1.00;0.90;;;;;;;;;;5071287;28;20764;-65
2021/06/20 20:15:45;;;;;;;1.80;0.95;;;;;;;;;;5042723;28;20524;-64
2021/06/20 20:18:10;;;;;;;1.50;0.82;;;;;;;;;;5072410;28;20017;-65
2021/06/20 20:20:36;;;;;;;1.00;0.80;;;;;;;;;;5073249;28;20056;-65
2021/06/20 20:23:02;;;;;;;1.25;0.88;;;;;;;;;;5073602;28;20041;-65
2021/06/20 20:25:28;;;;;;;1.10;1.00;;;;;;;;;;5073193;28;20072;-65
2021/06/20 20:27:53;;;;;;;1.63;1.00;;;;;;;;;;5072302;28;20052;-64
2021/06/20 20:30:19;;;;;;;1.10;0.98;;;;;;;;;;5072376;28;20048;-65
2021/06/20 20:32:46;;;;;;;0.90;0.90;;;;;;;;;;5070479;28;20033;-64
2021/06/20 20:35:12;;;;;;;1.42;1.00;;;;;;;;;;5071385;28;20033;-65
2021/06/20 20:37:37;;;;;;;1.75;1.02;;;;;;;;;;5071549;28;20553;-65
2021/06/20 20:40:05;;;;;;;1.55;0.90;;;;;;;;;;5074192;28;20025;-65
2021/06/20 20:42:30;;;;;;;1.23;0.82;;;;;;;;;;5070810;28;20429;-64
2021/06/20 20:44:55;;;;;;;1.30;0.90;;;;;;;;;;5071537;28;20129;-65
2021/06/20 20:47:22;;;;;;;1.00;0.80;;;;;;;;;;5072882;28;20033;-64
2021/06/20 20:49:47;;;;;;;1.02;0.80;;;;;;;;;;5072665;28;20037;-65
2021/06/20 20:52:13;;;;;;;0.80;0.80;;;;;;;;;;5070577;28;20036;-64
2021/06/20 20:54:39;;;;;;;0.93;0.80;;;;;;;;;;5070543;28;20040;-64
2021/06/20 20:57:04;;;;;;;0.88;0.85;;;;;;;;;;5072669;28;20048;-65
2021/06/20 20:59:30;;;;;;;1.10;0.70;;;;;;;;;;5073431;28;20464;-65
2021/06/20 21:01:55;;;;;;;1.00;0.90;;;;;;;;;;5069295;28;20039;-64
2021/06/20 21:04:21;;;;;;;1.23;0.90;;;;;;;;;;5040930;28;20051;-65
2021/06/20 21:06:46;;;;;;;1.23;0.80;;;;;;;;;;5069789;28;20036;-64
2021/06/20 21:09:12;;;;;;;1.17;0.90;;;;;;;;;;5072735;28;20037;-65
2021/06/20 21:11:38;;;;;;;1.75;0.95;;;;;;;;;;5072288;28;20025;-65
2021/06/20 21:14:03;;;;;;;0.73;0.73;;;;;;;;;;5058774;28;20477;-65
2021/06/20 21:16:29;;;;;;;0.93;0.80;;;;;;;;;;5069857;28;20029;-65
2021/06/20 21:18:54;;;;;;;0.95;0.90;;;;;;;;;;5070213;28;20060;-65
2021/06/20 21:21:20;;;;;;;1.02;0.90;;;;;;;;;;5070196;28;20025;-65
2021/06/20 21:23:45;;;;;;;0.80;0.80;;;;;;;;;;5072270;28;20090;-65
2021/06/20 21:26:12;;;;;;;1.00;0.90;;;;;;;;;;5072653;28;21301;-65
2021/06/20 21:28:37;;;;;;;0.80;0.80;;;;;;;;;;5068540;28;20152;-65
2021/06/20 21:31:03;;;;;;;1.00;0.90;;;;;;;;;;5071336;28;20811;-64
2021/06/20 21:33:28;;;;;;;1.10;0.90;;;;;;;;;;5073015;28;20464;-65
2021/06/20 21:35:54;;;;;;;0.82;0.82;;;;;;;;;;5054415;28;20036;-65
2021/06/20 21:38:19;;;;;;;1.38;0.93;;;;;;;;;;5071625;28;20036;-65
2021/06/20 21:40:45;;;;;;;1.02;0.82;;;;;;;;;;5073067;28;20044;-65
2021/06/20 21:43:10;;;;;;;1.15;0.93;;;;;;;;;;5071072;28;20037;-65
2021/06/20 21:45:36;;;;;;;0.90;0.90;;;;;;;;;;5066608;28;20045;-65
2021/06/20 21:48:01;;;;;;;1.20;1.10;;;;;;;;;;5073140;28;20029;-65
2021/06/20 21:50:27;;;;;;;1.05;0.80;;;;;;;;;;5071121;28;20861;-64
2021/06/20 21:52:54;;;;;;;1.00;0.90;;;;;;;;;;5069745;28;21069;-65
2021/06/20 21:55:21;;;;;;;1.20;1.10;;;;;;;;;;5070411;28;20040;-64
2021/06/20 21:57:46;;;;;;;1.30;1.17;;;;;;;;;;5079542;28;20032;-65
2021/06/20 22:00:13;;;;;;;1.15;1.05;;;;;;;;;;5069974;28;20041;-65
2021/06/20 22:02:39;;;;;;;1.55;1.00;;;;;;;;;;5069501;28;20029;-65
2021/06/20 22:05:05;;;;;;;1.30;0.93;;;;;;;;;;5071499;28;20055;-64
2021/06/20 22:07:31;;;;;;;1.48;1.20;;;;;;;;;;5069806;28;20033;-65
2021/06/20 22:09:56;;;;;;;4.38;1.13;;;;;;;;;;5070851;28;20063;-65
2021/06/20 22:12:21;;;;;;;0.93;0.82;;;;;;;;;;5073824;28;20037;-65
2021/06/20 22:14:48;;;;;;;1.15;1.05;;;;;;;;;;5068216;28;20037;-64
2021/06/20 22:17:13;;;;;;;2.30;1.33;;;;;;;;;;5071316;28;20123;-65
2021/06/20 22:19:39;;;;;;;1.25;1.15;;;;;;;;;;5071880;28;20037;-64
2021/06/20 22:22:04;;;;;;;1.83;1.30;;;;;;;;;;5072497;28;20076;-65
2021/06/20 22:24:30;;;;;;;1.55;1.38;;;;;;;;;;5072184;28;20048;-65
2021/06/20 22:26:56;;;;;;;1.95;1.27;;;;;;;;;;5071401;28;20099;-65
2021/06/20 22:29:21;;;;;;;1.75;1.20;;;;;;;;;;5068277;28;20143;-66
2021/06/20 22:31:47;;;;;;;1.98;1.40;;;;;;;;;;5067534;28;20032;-64
2021/06/20 22:34:12;;;;;;;2.00;1.40;;;;;;;;;;5071657;28;20818;-65
2021/06/20 22:36:38;;;;;;;1.83;1.20;;;;;;;;;;5070603;28;20033;-65
2021/06/20 22:39:04;;;;;;;1.50;1.40;;;;;;;;;;5070553;28;20042;-65
2021/06/20 22:41:31;;;;;;;2.17;1.30;;;;;;;;;;5069387;28;20033;-65
2021/06/20 22:43:57;;;;;;;1.90;1.45;;;;;;;;;;5073069;28;20068;-65
2021/06/20 22:46:23;;;;;;;1.70;1.50;;;;;;;;;;5078448;28;20041;-65
2021/06/20 22:48:48;;;;;;;1.48;1.38;;;;;;;;;;5061854;28;20032;-66
2021/06/20 22:51:14;;;;;;;1.40;1.30;;;;;;;;;;5072420;28;20041;-65
2021/06/20 22:53:39;;;;;;;1.60;1.50;;;;;;;;;;5071512;28;20044;-65
2021/06/20 22:56:05;;;;;;;1.92;1.65;;;;;;;;;;5067650;28;20028;-65
2021/06/20 22:58:30;;;;;;;1.80;1.58;;;;;;;;;;5071266;28;20043;-65
2021/06/20 23:00:56;;;;;;;2.15;1.50;;;;;;;;;;5086256;28;22190;-65
2021/06/20 23:03:21;;;;;;;1.67;1.58;;;;;;;;;;5070215;28;20033;-65
2021/06/20 23:05:47;;;;;;;2.97;1.90;;;;;;;;;;5070712;28;20029;-66
2021/06/20 23:08:12;;;;;;;1.80;1.63;;;;;;;;;;5070298;28;20032;-65
2021/06/20 23:10:38;;;;;;;2.10;1.90;;;;;;;;;;5070833;28;20036;-65
2021/06/20 23:13:03;;;;;;;2.08;1.88;;;;;;;;;;5071253;28;20025;-65
2021/06/20 23:15:29;;;;;;;1.83;1.60;;;;;;;;;;5069511;28;20033;-65
2021/06/20 23:17:54;;;;;;;2.30;1.60;;;;;;;;;;5036465;28;20094;-65
2021/06/20 23:20:20;;;;;;;2.85;2.20;;;;;;;;;;5063505;28;20135;-65
2021/06/20 23:22:45;;;;;;;2.53;1.90;;;;;;;;;;5071202;28;20036;-65
2021/06/20 23:25:11;;;;;;;2.00;1.80;;;;;;;;;;5069806;28;20393;-65
2021/06/20 23:27:37;;;;;;;1.90;1.70;;;;;;;;;;5067233;28;20592;-65
2021/06/20 23:30:04;;;;;;;2.35;1.80;;;;;;;;;;5068044;28;20110;-65
2021/06/20 23:32:29;;;;;;;2.92;1.80;;;;;;;;;;5069528;28;20041;-65
2021/06/20 23:34:55;;;;;;;2.08;1.70;;;;;;;;;;5070115;28;20761;-65
2021/06/20 23:37:20;;;;;;;2.70;2.03;;;;;;;;;;5067929;28;20102;-65
2021/06/20 23:39:46;;;;;;;2.90;2.28;;;;;;;;;;5069853;28;20040;-64
2021/06/20 23:42:11;;;;;;;2.63;1.92;;;;;;;;;;5068016;28;20048;-64
2021/06/20 23:44:37;;;;;;;2.28;2.08;;;;;;;;;;5068183;28;20563;-64
2021/06/20 23:47:05;;;;;;;3.30;2.00;;;;;;;;;;5069591;28;20037;-64
2021/06/20 23:49:30;;;;;;;2.40;1.98;;;;;;;;;;5068619;28;20037;-64
2021/06/20 23:51:56;;;;;;;3.08;2.33;;;;;;;;;;5070394;28;20874;-64
2021/06/20 23:54:21;;;;;;;2.22;1.90;;;;;;;;;;5066396;28;20031;-65
2021/06/20 23:56:47;;;;;;;2.00;1.80;;;;;;;;;;5070026;28;20086;-64
2021/06/20 23:59:12;;;;;;;1.95;1.75;;;;;;;;;;5062072;28;20043;-65
